createdAt,value
2019-02-06T00:01:21.268Z,98151.08
2019-02-06T00:03:52.789Z,98149.49
2019-02-06T00:06:23.453Z,98143.71
2019-02-06T00:08:55.212Z,98141.94
2019-02-06T00:11:26.036Z,98150.97
2019-02-06T00:13:57.092Z,98152.45
2019-02-06T00:16:27.829Z,98148.32
2019-02-06T00:18:59.596Z,98154.45
2019-02-06T00:21:30.615Z,98147.86
2019-02-06T00:24:03.373Z,98140.30
2019-02-06T00:26:34.022Z,98142.06
2019-02-06T00:29:04.735Z,98144.59
2019-02-06T00:31:36.492Z,98144.30
2019-02-06T00:34:07.143Z,98138.98
2019-02-06T00:36:38.712Z,98133.98
2019-02-06T00:39:11.062Z,98132.66
2019-02-06T00:41:41.721Z,98139.63
2019-02-06T00:44:12.739Z,98143.47
2019-02-06T00:46:44.179Z,98140.77
2019-02-06T00:49:15.531Z,98142.39
2019-02-06T00:51:46.587Z,98145.24
2019-02-06T00:54:17.681Z,98137.35
2019-02-06T00:56:48.300Z,98134.13
2019-02-06T00:59:18.937Z,98132.23
2019-02-06T01:01:50.736Z,98134.95
2019-02-06T01:04:21.574Z,98132.86
2019-02-06T01:06:52.503Z,98132.20
2019-02-06T01:09:23.675Z,98133.19
2019-02-06T01:11:53.975Z,98129.18
2019-02-06T01:14:25.020Z,98125.64
2019-02-06T01:16:57.140Z,98129.03
2019-02-06T01:19:28.133Z,98125.98
2019-02-06T01:21:58.458Z,98127.95
2019-02-06T01:24:30.007Z,98125.25
2019-02-06T01:27:01.055Z,98121.20
2019-02-06T01:29:32.307Z,98114.91
2019-02-06T01:32:03.015Z,98117.49
2019-02-06T01:34:34.060Z,98119.27
2019-02-06T01:37:05.500Z,98117.98
2019-02-06T01:39:36.570Z,98115.74
2019-02-06T01:42:06.874Z,98113.45
2019-02-06T01:44:38.299Z,98111.84
2019-02-06T01:47:09.380Z,98111.98
2019-02-06T01:49:44.913Z,98115.83
2019-02-06T01:52:16.353Z,98112.14
2019-02-06T01:54:48.939Z,98110.09
2019-02-06T01:57:20.274Z,98107.86
2019-02-06T01:59:51.319Z,98103.55
2019-02-06T03:02:02.718Z,98086.02
2019-02-06T03:04:38.298Z,98089.26
2019-02-06T03:07:09.059Z,98083.48
2019-02-06T03:09:40.711Z,98085.28
2019-02-06T03:12:11.360Z,98085.11
2019-02-06T03:14:42.402Z,98084.95
2019-02-06T03:18:05.390Z,98074.81
2019-02-06T03:20:36.710Z,98071.95
2019-02-06T03:23:07.266Z,98071.16
2019-02-06T03:25:38.401Z,98079.39
2019-02-06T03:28:08.786Z,98076.34
2019-02-06T03:30:39.452Z,98080.84
2019-02-06T03:33:10.637Z,98084.05
2019-02-06T03:35:45.107Z,98082.13
2019-02-06T03:38:16.167Z,98081.95
2019-02-06T03:40:47.998Z,98073.28
2019-02-06T03:43:19.152Z,98071.49
2019-02-06T03:45:50.871Z,98070.35
2019-02-06T03:48:21.552Z,98065.05
2019-02-06T03:50:52.893Z,98067.92
2019-02-06T03:53:24.035Z,98073.37
2019-02-06T03:55:54.817Z,98069.53
2019-02-06T03:58:25.551Z,98071.08
2019-02-06T04:00:56.139Z,98071.72
2019-02-06T04:03:27.054Z,98075.09
2019-02-06T04:05:57.716Z,98076.41
2019-02-06T04:08:28.322Z,98073.20
2019-02-06T04:14:47.672Z,98078.95
2019-02-06T04:17:19.096Z,98079.19
2019-02-06T04:19:50.140Z,98077.09
2019-02-06T04:22:21.081Z,98078.05
2019-02-06T04:24:52.541Z,98076.47
2019-02-06T04:27:23.287Z,98077.95
2019-02-06T04:29:54.694Z,98081.59
2019-02-06T04:32:26.056Z,98084.15
2019-02-06T04:34:57.103Z,98088.34
2019-02-06T04:37:28.429Z,98080.30
2019-02-06T04:39:59.422Z,98080.98
2019-02-06T04:42:30.105Z,98085.64
2019-02-06T04:45:01.164Z,98087.70
2019-02-06T04:47:32.954Z,98089.63
2019-02-06T04:50:04.087Z,98089.47
2019-02-06T04:52:35.798Z,98091.27
2019-02-06T04:55:07.251Z,98089.31
2019-02-06T04:57:38.354Z,98097.05
2019-02-06T05:00:21.018Z,98095.47
2019-02-06T05:02:52.410Z,98096.58
2019-02-06T05:05:54.777Z,98094.42
2019-02-06T05:08:28.294Z,98097.34
2019-02-06T05:10:59.174Z,98097.52
2019-02-06T05:13:30.943Z,98092.39
2019-02-06T05:16:02.966Z,98090.16
2019-02-06T05:18:34.826Z,98094.30
2019-02-06T05:21:59.048Z,98098.30
2019-02-06T05:24:30.099Z,98098.41
2019-02-06T05:27:01.424Z,98097.36
2019-02-06T05:29:32.504Z,98094.60
2019-02-06T05:32:03.851Z,98099.59
2019-02-06T05:34:35.165Z,98093.89
2019-02-06T05:37:06.231Z,98097.00
2019-02-06T05:39:36.854Z,98097.80
2019-02-06T05:42:07.529Z,98103.58
2019-02-06T05:44:38.143Z,98104.41
2019-02-06T05:47:09.590Z,98104.70
2019-02-06T05:49:41.228Z,98108.67
2019-02-06T05:52:12.261Z,98107.94
2019-02-06T05:54:42.953Z,98103.07
2019-02-06T05:57:15.477Z,98104.19
2019-02-06T05:59:46.532Z,98106.73
2019-02-06T06:02:17.259Z,98103.98
2019-02-06T06:04:48.706Z,98098.50
2019-02-06T06:07:45.318Z,98095.08
2019-02-06T06:10:15.962Z,98101.88
2019-02-06T06:12:47.406Z,98096.66
2019-02-06T06:15:19.365Z,98088.91
2019-02-06T06:17:50.701Z,98093.09
2019-02-06T06:20:21.941Z,98098.24
2019-02-06T06:22:54.467Z,98103.20
2019-02-06T06:25:25.093Z,98100.02
2019-02-06T06:27:56.234Z,98097.96
2019-02-06T06:30:47.631Z,98097.61
2019-02-06T06:33:18.880Z,98109.30
2019-02-06T06:35:49.667Z,98097.50
2019-02-06T06:38:20.272Z,98103.94
2019-02-06T06:40:51.275Z,98102.38
2019-02-06T06:43:22.656Z,98104.16
2019-02-06T06:45:53.755Z,98113.66
2019-02-06T06:48:25.230Z,98112.30
2019-02-06T06:50:56.278Z,98118.12
2019-02-06T06:53:27.007Z,98123.16
2019-02-06T06:55:58.500Z,98110.10
2019-02-06T06:58:29.196Z,98108.23
2019-02-06T07:01:00.929Z,98102.47
2019-02-06T07:03:32.188Z,98107.06
2019-02-06T07:06:49.948Z,98109.08
2019-02-06T07:09:20.657Z,98113.42
2019-02-06T07:11:52.070Z,98112.63
2019-02-06T07:14:22.768Z,98109.67
2019-02-06T07:16:54.334Z,98105.09
2019-02-06T07:19:26.003Z,98111.92
2019-02-06T07:21:57.618Z,98116.34
2019-02-06T07:24:52.150Z,98116.92
2019-02-06T07:27:24.308Z,98123.39
2019-02-06T07:30:13.144Z,98127.38
2019-02-06T07:32:44.154Z,98129.06
2019-02-06T07:35:14.827Z,98133.13
2019-02-06T07:37:46.460Z,98130.69
2019-02-06T07:40:17.292Z,98135.70
2019-02-06T07:42:48.803Z,98130.62
2019-02-06T07:45:20.692Z,98133.77
2019-02-06T07:47:51.450Z,98135.98
2019-02-06T07:50:31.710Z,98135.41
2019-02-06T07:53:02.738Z,98135.81
2019-02-06T07:55:33.811Z,98137.14
2019-02-06T07:58:04.860Z,98136.52
2019-02-06T08:00:36.358Z,98146.78
2019-02-06T08:04:07.821Z,98149.14
2019-02-06T08:06:38.860Z,98145.91
2019-02-06T08:09:11.332Z,98136.08
2019-02-06T08:11:42.660Z,98142.22
2019-02-06T08:14:14.340Z,98149.47
2019-02-06T08:17:20.811Z,98151.52
2019-02-06T08:19:52.119Z,98139.77
2019-02-06T08:22:23.520Z,98140.47
2019-02-06T08:24:54.967Z,98137.67
2019-02-06T08:27:26.535Z,98135.46
2019-02-06T08:29:56.895Z,98137.21
2019-02-06T08:32:28.108Z,98140.28
2019-02-06T08:34:59.418Z,98143.06
2019-02-06T08:37:29.731Z,98145.79
2019-02-06T08:40:00.823Z,98143.38
2019-02-06T08:42:31.843Z,98138.57
2019-02-06T08:45:02.880Z,98136.58
2019-02-06T08:47:34.266Z,98137.94
2019-02-06T08:50:05.533Z,98135.45
2019-02-06T08:52:36.764Z,98135.53
2019-02-06T08:55:09.629Z,98138.05
2019-02-06T08:57:40.865Z,98131.41
2019-02-06T09:00:21.619Z,98140.13
2019-02-06T09:02:52.653Z,98130.06
2019-02-06T09:05:23.348Z,98131.36
2019-02-06T09:07:54.021Z,98127.52
2019-02-06T09:10:26.533Z,98120.80
2019-02-06T09:12:57.721Z,98125.61
2019-02-06T09:15:29.121Z,98121.78
2019-02-06T09:18:00.394Z,98126.69
2019-02-06T09:20:32.188Z,98120.98
2019-02-06T09:23:03.384Z,98121.80
2019-02-06T09:25:35.199Z,98118.69
2019-02-06T09:28:06.628Z,98123.98
2019-02-06T09:30:38.211Z,98124.44
2019-02-06T09:33:09.498Z,98120.31
2019-02-06T09:35:40.774Z,98121.34
2019-02-06T09:38:11.735Z,98117.52
2019-02-06T09:40:43.423Z,98114.48
2019-02-06T09:43:14.143Z,98112.72
2019-02-06T09:45:44.970Z,98114.16
2019-02-06T09:48:16.312Z,98107.91
2019-02-06T09:50:47.358Z,98109.66
2019-02-06T09:53:18.442Z,98106.76
2019-02-06T09:55:49.716Z,98104.85
2019-02-06T09:58:20.458Z,98107.37
2019-02-06T10:00:51.496Z,98108.83
2019-02-06T10:03:22.571Z,98103.25
2019-02-06T10:05:53.685Z,98106.32
2019-02-06T10:08:24.682Z,98107.17
2019-02-06T10:10:55.489Z,98107.95
2019-02-06T10:13:26.022Z,98107.39
2019-02-06T10:15:57.155Z,98101.16
2019-02-06T10:18:28.458Z,98103.06
2019-02-06T10:20:59.998Z,98104.14
2019-02-06T10:23:30.977Z,98101.59
2019-02-06T10:26:02.535Z,98102.08
2019-02-06T10:28:33.662Z,98093.42
2019-02-06T10:31:04.085Z,98090.87
2019-02-06T10:33:35.800Z,98091.32
2019-02-06T10:36:07.065Z,98098.55
2019-02-06T10:38:38.516Z,98093.86
2019-02-06T10:41:11.015Z,98092.12
2019-02-06T10:43:42.483Z,98089.06
2019-02-06T10:46:12.810Z,98084.73
2019-02-06T10:48:44.052Z,98086.34
2019-02-06T10:51:15.664Z,98085.98
2019-02-06T10:53:47.019Z,98087.58
2019-02-06T10:56:17.669Z,98084.89
2019-02-06T10:58:48.788Z,98075.09
2019-02-06T11:01:20.515Z,98076.34
2019-02-06T11:03:51.645Z,98071.97
2019-02-06T11:06:22.752Z,98068.17
2019-02-06T11:08:53.483Z,98060.13
2019-02-06T11:11:25.122Z,98057.41
2019-02-06T11:13:55.828Z,98050.66
2019-02-06T11:16:27.599Z,98045.52
2019-02-06T11:18:58.995Z,98039.05
2019-02-06T11:21:30.408Z,98028.47
2019-02-06T11:24:31.486Z,98032.75
2019-02-06T11:27:01.793Z,98023.54
2019-02-06T11:29:32.783Z,98022.47
2019-02-06T11:32:03.173Z,98019.05
2019-02-06T11:34:34.605Z,98011.06
2019-02-06T11:37:06.078Z,98010.29
2019-02-06T11:39:38.100Z,98005.02
2019-02-06T11:42:08.414Z,98010.46
2019-02-06T11:44:39.391Z,98013.19
2019-02-06T11:47:11.220Z,98002.22
2019-02-06T11:49:44.438Z,98006.94
2019-02-06T11:52:15.564Z,98001.13
2019-02-06T11:54:46.292Z,97996.87
2019-02-06T11:57:16.977Z,97997.63
2019-02-06T11:59:48.020Z,97992.48
2019-02-06T12:02:20.490Z,97989.84
2019-02-06T12:04:51.934Z,97988.16
2019-02-06T12:07:23.367Z,97980.90
2019-02-06T12:09:54.496Z,97978.59
2019-02-06T12:12:25.625Z,97974.59
2019-02-06T12:14:57.158Z,97966.90
2019-02-06T12:17:27.828Z,97960.81
2019-02-06T12:19:58.901Z,97952.41
2019-02-06T12:22:29.846Z,97941.85
2019-02-06T12:25:01.097Z,97939.52
2019-02-06T12:27:32.113Z,97936.44
2019-02-06T12:30:03.518Z,97932.42
2019-02-06T12:32:34.224Z,97935.51
2019-02-06T12:35:06.032Z,97935.61
2019-02-06T12:37:37.117Z,97935.70
2019-02-06T12:40:08.344Z,97925.58
2019-02-06T12:42:40.259Z,97920.30
2019-02-06T12:45:11.397Z,97910.95
2019-02-06T12:47:42.380Z,97924.31
2019-02-06T12:50:15.546Z,97916.33
2019-02-06T12:52:46.060Z,97909.42
2019-02-06T12:55:22.386Z,97908.05
2019-02-06T12:57:53.019Z,97901.78
2019-02-06T13:00:29.684Z,97891.41
2019-02-06T13:03:00.989Z,97887.68
2019-02-06T13:05:41.366Z,97881.48
2019-02-06T13:08:12.518Z,97877.14
2019-02-06T13:10:45.297Z,97872.24
2019-02-06T13:13:16.039Z,97867.11
2019-02-06T13:15:47.581Z,97857.12
2019-02-06T13:18:18.625Z,97856.11
2019-02-06T13:20:51.440Z,97852.80
2019-02-06T13:23:23.142Z,97854.16
2019-02-06T13:25:54.428Z,97842.66
2019-02-06T13:28:24.750Z,97848.88
2019-02-06T13:30:56.109Z,97847.39
2019-02-06T13:33:27.140Z,97851.27
2019-02-06T13:35:58.591Z,97846.04
2019-02-06T13:38:30.005Z,97840.66
2019-02-06T13:41:01.732Z,97839.22
2019-02-06T13:43:32.742Z,97843.14
2019-02-06T13:46:03.071Z,97845.82
2019-02-06T13:48:34.118Z,97846.00
2019-02-06T13:51:15.581Z,97847.12
2019-02-06T13:53:38.202Z,97849.63
2019-02-06T13:56:08.615Z,97843.48
2019-02-06T13:58:39.394Z,97835.42
2019-02-06T14:01:10.874Z,97832.02
2019-02-06T14:03:41.493Z,97827.79
2019-02-06T14:06:31.082Z,97832.45
2019-02-06T14:09:02.078Z,97822.09
2019-02-06T14:11:33.527Z,97819.05
2019-02-06T14:14:04.656Z,97818.06
2019-02-06T14:16:35.372Z,97800.61
2019-02-06T14:19:15.541Z,97801.92
2019-02-06T14:21:46.245Z,97804.55
2019-02-06T14:24:43.849Z,97795.89
2019-02-06T14:27:49.330Z,97803.25
2019-02-06T14:31:07.134Z,97790.44
2019-02-06T14:34:39.641Z,97790.78
2019-02-06T14:37:54.322Z,97790.94
2019-02-06T14:41:10.861Z,97787.77
2019-02-06T14:44:35.425Z,97782.31
2019-02-06T14:47:39.385Z,97777.58
2019-02-06T14:51:04.311Z,97778.40
2019-02-06T14:55:02.257Z,97778.37
2019-02-06T14:58:40.397Z,97772.62
2019-02-06T15:01:49.950Z,97770.19
2019-02-06T15:05:03.885Z,97769.66
2019-02-06T15:08:11.016Z,97762.58
2019-02-06T15:11:19.748Z,97763.81
2019-02-06T15:14:45.974Z,97758.22
2019-02-06T15:18:09.249Z,97755.67
2019-02-06T15:21:39.533Z,97755.68
2019-02-06T15:25:14.575Z,97756.41
2019-02-06T15:28:39.292Z,97758.19
2019-02-06T15:32:12.448Z,97745.30
2019-02-06T15:35:41.376Z,97748.89
2019-02-06T15:39:06.367Z,97748.38
2019-02-06T15:42:06.233Z,97746.09
2019-02-06T15:45:27.929Z,97736.47
2019-02-06T15:48:38.371Z,97738.80
2019-02-06T15:52:09.530Z,97736.23
2019-02-06T15:55:30.204Z,97734.11
2019-02-06T15:58:35.220Z,97728.67
2019-02-06T16:01:47.917Z,97730.88
2019-02-06T16:05:55.461Z,97728.17
2019-02-06T16:08:59.518Z,97723.58
2019-02-06T16:12:08.019Z,97719.34
2019-02-06T16:15:36.919Z,97718.18
2019-02-06T16:18:56.422Z,97715.33
2019-02-06T16:22:25.547Z,97712.38
2019-02-06T16:25:47.251Z,97715.61
2019-02-06T16:29:26.346Z,97716.08
2019-02-06T16:32:49.635Z,97717.56
2019-02-06T16:36:32.458Z,97709.94
2019-02-06T16:39:47.452Z,97715.37
2019-02-06T16:42:59.126Z,97718.64
2019-02-06T16:46:48.622Z,97723.65
2019-02-06T16:50:20.297Z,97719.48
2019-02-06T16:53:40.781Z,97720.77
2019-02-06T16:56:50.781Z,97727.36
2019-02-06T17:00:04.433Z,97719.33
2019-02-06T17:03:27.941Z,97719.84
2019-02-06T17:07:21.633Z,97718.53
2019-02-06T17:10:43.462Z,97720.14
2019-02-06T17:14:02.318Z,97710.21
2019-02-06T17:17:32.745Z,97707.17
2019-02-06T17:21:21.746Z,97706.85
2019-02-06T17:28:52.065Z,97700.59
2019-02-06T17:32:15.014Z,97705.27
2019-02-06T17:35:32.259Z,97706.87
2019-02-06T17:39:00.734Z,97704.45
2019-02-06T17:42:16.341Z,97704.60
2019-02-06T17:45:30.590Z,97701.09
2019-02-06T17:48:58.112Z,97703.66
2019-02-06T17:52:57.817Z,97698.84
2019-02-06T17:55:29.351Z,97700.45
2019-02-06T17:58:07.671Z,97701.41
2019-02-06T18:01:10.383Z,97702.84
2019-02-06T18:04:04.600Z,97704.31
2019-02-06T18:06:35.359Z,97699.19
2019-02-06T18:09:17.831Z,97703.03
2019-02-06T18:12:28.758Z,97705.61
2019-02-06T18:14:58.841Z,97697.58
2019-02-06T18:17:29.159Z,97694.99
2019-02-06T18:19:59.911Z,97691.31
2019-02-06T18:22:31.369Z,97691.48
2019-02-06T18:25:03.022Z,97694.68
2019-02-06T18:27:33.736Z,97694.53
2019-02-06T18:30:05.597Z,97691.16
2019-02-06T18:32:36.926Z,97692.28
2019-02-06T18:35:08.798Z,97681.70
2019-02-06T18:37:43.351Z,97683.14
2019-02-06T18:40:13.803Z,97683.63
2019-02-06T18:42:44.226Z,97678.31
2019-02-06T18:45:16.681Z,97678.98
2019-02-06T18:47:47.547Z,97677.84
2019-02-06T18:50:22.009Z,97677.84
2019-02-06T18:52:53.595Z,97669.66
2019-02-06T18:55:25.012Z,97668.84
2019-02-06T18:57:59.965Z,97663.55
2019-02-06T19:00:34.383Z,97665.16
2019-02-06T19:03:09.401Z,97663.73
2019-02-06T19:05:40.440Z,97664.50
2019-02-06T19:08:31.282Z,97660.20
2019-02-06T19:11:02.607Z,97655.38
2019-02-06T19:13:33.234Z,97654.28
2019-02-06T19:16:06.516Z,97652.34
2019-02-06T19:18:37.672Z,97648.83
2019-02-06T19:21:09.167Z,97646.42
2019-02-06T19:23:40.462Z,97640.50
2019-02-06T19:26:11.398Z,97644.34
2019-02-06T19:28:42.869Z,97637.28
2019-02-06T19:31:13.906Z,97640.00
2019-02-06T19:33:44.937Z,97634.08
2019-02-06T19:36:15.847Z,97632.47
2019-02-06T19:38:47.218Z,97630.23
2019-02-06T19:41:17.859Z,97630.84
2019-02-06T19:43:48.970Z,97627.48
2019-02-06T19:46:19.869Z,97623.47
2019-02-06T19:48:51.561Z,97621.55
2019-02-06T19:51:22.680Z,97614.03
2019-02-06T19:53:54.458Z,97613.08
2019-02-06T19:56:25.545Z,97619.65
2019-02-06T19:58:56.556Z,97614.19
2019-02-06T20:01:27.914Z,97615.74
2019-02-06T20:03:59.370Z,97611.52
2019-02-06T20:06:31.506Z,97606.38
2019-02-06T20:09:08.278Z,97609.33
2019-02-06T20:11:39.436Z,97608.86
2019-02-06T20:14:10.544Z,97606.78
2019-02-06T20:16:41.910Z,97603.41
2019-02-06T20:19:12.318Z,97601.43
2019-02-06T20:21:43.448Z,97598.78
2019-02-06T20:24:14.535Z,97596.84
2019-02-06T20:26:44.928Z,97595.44
2019-02-06T20:29:16.425Z,97598.30
2019-02-06T20:31:47.840Z,97591.73
2019-02-06T20:34:40.022Z,97594.30
2019-02-06T20:37:11.363Z,97595.12
2019-02-06T20:39:42.203Z,97596.05
2019-02-06T20:42:13.452Z,97595.86
2019-02-06T20:44:44.931Z,97589.61
2019-02-06T20:47:16.278Z,97589.33
2019-02-06T20:49:53.389Z,97589.81
2019-02-06T20:52:24.057Z,97589.67
2019-02-06T20:55:18.645Z,97582.39
2019-02-06T20:58:20.415Z,97584.86
2019-02-06T21:00:53.061Z,97581.12
2019-02-06T21:03:24.296Z,97584.37
2019-02-06T21:06:11.604Z,97583.10
2019-02-06T21:09:00.517Z,97577.52
2019-02-06T21:12:15.796Z,97575.42
2019-02-06T21:14:57.507Z,97571.88
2019-02-06T21:17:31.825Z,97573.97
2019-02-06T21:23:27.945Z,97563.08
2019-02-06T21:26:00.448Z,97560.50
2019-02-06T21:28:45.416Z,97558.89
2019-02-06T21:31:16.107Z,97554.42
2019-02-06T21:33:49.653Z,97551.03
2019-02-06T21:36:23.339Z,97541.77
2019-02-06T21:39:13.197Z,97545.16
2019-02-06T21:41:51.608Z,97542.41
2019-02-06T21:44:34.077Z,97542.59
2019-02-06T21:47:06.128Z,97537.47
2019-02-06T21:49:48.193Z,97540.04
2019-02-06T21:52:58.924Z,97534.25
2019-02-06T21:55:41.948Z,97536.81
2019-02-06T21:58:16.292Z,97537.30
2019-02-06T22:00:50.986Z,97532.95
2019-02-06T22:03:24.354Z,97529.62
2019-02-06T22:06:13.490Z,97528.48
2019-02-06T22:08:47.265Z,97528.16
2019-02-06T22:11:26.266Z,97532.67
2019-02-06T22:14:02.968Z,97525.58
2019-02-06T22:16:46.649Z,97527.22
2019-02-06T22:19:18.211Z,97530.89
2019-02-06T22:21:49.295Z,97526.42
2019-02-06T22:24:20.567Z,97523.05
2019-02-06T22:26:54.085Z,97518.52
2019-02-06T22:29:25.349Z,97514.73
2019-02-06T22:31:59.958Z,97514.23
2019-02-06T22:34:33.206Z,97513.11
2019-02-06T22:37:11.754Z,97511.84
2019-02-06T22:40:09.118Z,97518.89
2019-02-06T22:42:43.995Z,97516.34
2019-02-06T22:45:28.333Z,97523.53
2019-02-06T22:48:09.116Z,97528.97
2019-02-06T22:50:39.855Z,97517.74
2019-02-06T22:53:36.307Z,97516.95
2019-02-06T22:56:11.372Z,97509.77
2019-02-06T22:58:51.403Z,97517.77
2019-02-06T23:01:45.387Z,97523.19
2019-02-06T23:04:35.312Z,97524.30
2019-02-06T23:07:11.197Z,97519.50
2019-02-06T23:09:42.007Z,97512.17
2019-02-06T23:12:13.965Z,97513.28
2019-02-06T23:14:49.645Z,97510.70
2019-02-06T23:17:20.907Z,97506.39
2019-02-06T23:19:53.816Z,97511.05
2019-02-06T23:22:25.722Z,97503.50
2019-02-06T23:25:03.918Z,97493.25
2019-02-06T23:27:36.539Z,97485.58
2019-02-06T23:30:09.148Z,97497.09
2019-02-06T23:32:47.872Z,97489.57
2019-02-06T23:35:31.289Z,97488.44
2019-02-06T23:38:19.555Z,97483.00
2019-02-06T23:41:18.952Z,97477.23
2019-02-06T23:43:50.080Z,97476.60
2019-02-06T23:47:08.845Z,97471.19
2019-02-06T23:49:39.544Z,97471.97
2019-02-06T23:52:11.871Z,97462.22
2019-02-06T23:55:18.829Z,97467.16
2019-02-06T23:58:01.568Z,97460.59
